Piermont, New Hampshire
Current Conditions -  °F | °C
As of 1:15 AM on Sunday 26 Oct 2014 (Local Time) from K1P1 Reporting Station
Clear Clear  
Wind Chill: 49°   Ceiling: Unl
Heat Index: 49°   Visibility: 10mi
Dew Point: 48°   Wind: 3mph
Humidity: 96%   Direction: 50°NE
Pressure: 29.43"   Gusts: NA
Location:  43.97°N, 72.08°W
Report Text: K1P1 260515Z AUTO 05003KT 10SM CLR 09/09 A2943 RMK AO2 T00940088
Loading
Personal Weather Stations






























Interactive Weather Map
Tropical Storm Tracking
New forecast layout! Learn more

10-Day Weather Forecast

Advertisements
Track Severe Weather on mobile